createdAt,value
2018-12-01T00:01:02.218Z,22.30
2018-12-01T00:03:32.948Z,22.87
2018-12-01T00:06:03.492Z,32.67
2018-12-01T00:08:34.723Z,48.65
2018-12-01T00:11:04.326Z,41.97
2018-12-01T00:13:34.630Z,30.47
2018-12-01T00:16:04.529Z,25.00
2018-12-01T00:18:34.586Z,22.52
2018-12-01T00:21:04.434Z,18.93
2018-12-01T00:23:35.007Z,17.42
2018-12-01T00:26:04.918Z,18.60
2018-12-01T00:28:35.307Z,22.90
2018-12-01T00:31:04.990Z,14.80
2018-12-01T00:33:36.105Z,14.50
2018-12-01T00:36:06.547Z,21.55
2018-12-01T00:38:55.886Z,31.20
2018-12-01T00:41:25.496Z,21.87
2018-12-01T00:43:55.725Z,29.55
2018-12-01T00:46:25.333Z,20.05
2018-12-01T00:48:55.342Z,26.57
2018-12-01T00:51:25.577Z,25.60
2018-12-01T00:53:56.084Z,33.80
2018-12-01T00:56:26.670Z,22.70
2018-12-01T00:58:56.277Z,18.40
2018-12-01T01:01:26.258Z,20.77
2018-12-01T01:03:56.176Z,15.80
2018-12-01T01:06:26.482Z,14.25
2018-12-01T01:08:56.112Z,12.50
2018-12-01T01:11:44.629Z,13.55
2018-12-01T01:14:14.998Z,10.95
2018-12-01T01:16:45.220Z,11.83
2018-12-01T01:19:15.527Z,11.50
2018-12-01T01:21:45.470Z,14.30
2018-12-01T01:24:15.371Z,27.87
2018-12-01T01:26:45.014Z,25.85
2018-12-01T01:29:14.990Z,22.48
2018-12-01T01:31:44.621Z,32.03
2018-12-01T01:34:15.261Z,32.20
2018-12-01T01:36:45.814Z,29.70
2018-12-01T01:39:15.712Z,28.40
2018-12-01T01:41:45.707Z,20.20
2018-12-01T01:44:16.236Z,20.48
2018-12-01T01:46:45.865Z,32.13
2018-12-01T01:49:16.580Z,20.00
2018-12-01T01:51:46.542Z,21.52
2018-12-01T01:54:17.041Z,16.93
2018-12-01T01:56:47.231Z,24.02
2018-12-01T01:59:17.141Z,14.03
2018-12-01T02:01:47.067Z,17.70
2018-12-01T02:04:17.463Z,14.43
2018-12-01T02:06:47.347Z,22.48
2018-12-01T02:09:17.992Z,24.07
2018-12-01T02:11:48.259Z,21.83
2018-12-01T02:14:17.891Z,17.82
2018-12-01T02:16:47.791Z,17.62
2018-12-01T02:19:17.777Z,20.08
2018-12-01T02:21:47.768Z,25.37
2018-12-01T02:24:18.036Z,30.15
2018-12-01T02:26:47.947Z,25.45
2018-12-01T02:29:18.240Z,29.37
2018-12-01T02:31:47.852Z,27.87
2018-12-01T02:34:18.123Z,19.63
2018-12-01T02:36:48.461Z,25.57
2018-12-01T02:39:18.538Z,27.07
2018-12-01T02:41:49.040Z,31.23
2018-12-01T02:45:05.175Z,57.55
2018-12-01T02:47:35.907Z,32.17
2018-12-01T02:50:13.808Z,33.00
2018-12-01T02:52:43.510Z,28.97
2018-12-01T02:55:13.738Z,26.93
2018-12-01T02:57:43.963Z,29.40
2018-12-01T03:00:14.221Z,19.45
2018-12-01T03:02:44.426Z,24.77
2018-12-01T03:05:14.399Z,41.43
2018-12-01T03:07:44.004Z,26.33
2018-12-01T03:10:17.622Z,21.02
2018-12-01T03:12:47.543Z,24.98
2018-12-01T03:15:21.259Z,17.87
2018-12-01T03:17:52.496Z,19.67
2018-12-01T03:20:22.411Z,23.57
2018-12-01T03:22:52.735Z,19.17
2018-12-01T03:25:23.234Z,21.23
2018-12-01T03:27:54.221Z,21.65
2018-12-01T03:30:27.495Z,19.23
2018-12-01T03:32:57.120Z,19.98
2018-12-01T03:35:26.973Z,20.80
2018-12-01T03:37:57.651Z,24.55
2018-12-01T03:40:28.143Z,22.62
2018-12-01T03:42:57.761Z,23.80
2018-12-01T03:45:27.702Z,32.65
2018-12-01T03:47:57.596Z,21.25
2018-12-01T03:50:27.530Z,29.70
2018-12-01T03:52:58.285Z,27.35
2018-12-01T03:55:31.901Z,29.12
2018-12-01T03:58:02.295Z,25.40
2018-12-01T04:00:32.768Z,33.67
2018-12-01T04:03:03.458Z,27.37
2018-12-01T04:05:33.506Z,21.17
2018-12-01T04:08:03.911Z,27.95
2018-12-01T04:10:34.103Z,26.07
2018-12-01T04:13:05.305Z,34.53
2018-12-01T04:15:35.903Z,26.75
2018-12-01T04:18:05.846Z,29.15
2018-12-01T04:20:35.509Z,27.15
2018-12-01T04:23:06.109Z,24.87
2018-12-01T04:25:36.656Z,25.02
2018-12-01T04:28:06.697Z,24.12
2018-12-01T04:30:37.245Z,25.37
2018-12-01T04:33:07.200Z,22.00
2018-12-01T04:35:37.160Z,22.27
2018-12-01T04:38:07.022Z,29.33
2018-12-01T04:40:36.642Z,22.45
2018-12-01T04:43:06.657Z,31.73
2018-12-01T04:45:36.928Z,24.80
2018-12-01T04:48:06.809Z,23.15
2018-12-01T04:50:36.851Z,27.77
2018-12-01T04:53:07.688Z,24.25
2018-12-01T04:55:37.333Z,29.42
2018-12-01T04:58:07.719Z,25.50
2018-12-01T05:00:37.955Z,25.37
2018-12-01T05:03:07.571Z,24.70
2018-12-01T05:05:37.583Z,28.12
2018-12-01T05:08:07.437Z,24.33
2018-12-01T05:10:37.722Z,25.88
2018-12-01T05:13:07.598Z,23.12
2018-12-01T05:15:37.210Z,23.83
2018-12-01T05:18:08.277Z,24.82
2018-12-01T05:20:38.486Z,27.15
2018-12-01T05:23:08.383Z,24.67
2018-12-01T05:25:38.333Z,24.18
2018-12-01T05:28:07.962Z,24.25
2018-12-01T05:30:37.961Z,30.50
2018-12-01T05:33:07.892Z,28.87
2018-12-01T05:35:37.589Z,33.67
2018-12-01T05:38:07.208Z,28.05
2018-12-01T05:40:37.092Z,26.02
2018-12-01T05:43:07.722Z,27.00
2018-12-01T05:45:37.345Z,31.25
2018-12-01T05:48:07.962Z,31.55
2018-12-01T05:50:38.186Z,26.80
2018-12-01T05:53:08.105Z,27.30
2018-12-01T05:55:38.607Z,30.80
2018-12-01T05:58:08.248Z,39.30
2018-12-01T06:00:38.553Z,48.45
2018-12-01T06:03:09.335Z,61.08
2018-12-01T06:05:39.310Z,50.95
2018-12-01T06:08:09.326Z,49.63
2018-12-01T06:10:39.559Z,38.95
2018-12-01T06:13:09.569Z,62.05
2018-12-01T06:15:39.875Z,35.08
2018-12-01T06:18:09.807Z,38.45
2018-12-01T06:20:40.027Z,38.30
2018-12-01T06:23:10.237Z,28.32
2018-12-01T06:25:40.471Z,28.38
2018-12-01T06:28:10.346Z,28.73
2018-12-01T06:30:40.615Z,31.52
2018-12-01T06:33:10.233Z,27.10
2018-12-01T06:35:40.227Z,29.80
2018-12-01T06:38:10.131Z,30.30
2018-12-01T06:40:39.742Z,32.48
2018-12-01T06:43:09.612Z,31.02
2018-12-01T06:45:39.230Z,29.48
2018-12-01T06:48:09.499Z,33.38
2018-12-01T06:50:39.544Z,33.92
2018-12-01T06:53:09.467Z,38.13
2018-12-01T06:55:39.112Z,27.62
2018-12-01T06:58:09.704Z,36.05
2018-12-01T07:00:39.897Z,39.50
2018-12-01T07:03:09.508Z,47.08
2018-12-01T07:05:40.497Z,39.33
2018-12-01T07:08:10.554Z,36.65
2018-12-01T07:10:40.471Z,36.70
2018-12-01T07:13:10.398Z,35.65
2018-12-01T07:15:41.003Z,32.63
2018-12-01T07:18:46.362Z,41.45
2018-12-01T07:21:16.055Z,40.38
2018-12-01T07:23:45.710Z,30.92
2018-12-01T07:26:34.264Z,45.90
2018-12-01T07:29:04.882Z,33.05
2018-12-01T07:31:34.510Z,37.38
2018-12-01T07:34:04.394Z,27.75
2018-12-01T07:36:34.007Z,31.15
2018-12-01T07:39:04.081Z,26.05
2018-12-01T07:41:34.365Z,33.95
2018-12-01T07:44:04.351Z,29.50
2018-12-01T07:46:33.974Z,35.58
2018-12-01T07:49:03.867Z,27.85
2018-12-01T07:51:33.478Z,30.02
2018-12-01T07:54:03.139Z,26.60
2018-12-01T07:56:33.110Z,33.95
2018-12-01T07:59:03.444Z,23.38
2018-12-01T08:01:33.437Z,36.85
2018-12-01T08:04:03.068Z,34.60
2018-12-01T08:06:52.948Z,34.20
2018-12-01T08:09:22.546Z,36.55
2018-12-01T08:11:52.483Z,27.02
2018-12-01T08:14:22.158Z,41.58
2018-12-01T08:16:51.812Z,35.98
2018-12-01T08:19:22.105Z,32.93
2018-12-01T08:21:52.018Z,27.27
2018-12-01T08:24:22.094Z,34.45
2018-12-01T08:26:52.179Z,38.15
2018-12-01T08:29:22.482Z,28.12
2018-12-01T08:31:52.754Z,34.30
2018-12-01T08:34:22.757Z,32.35
2018-12-01T08:36:53.146Z,26.17
2018-12-01T08:39:23.355Z,27.52
2018-12-01T08:41:53.912Z,38.90
2018-12-01T08:44:23.803Z,33.58
2018-12-01T08:46:53.914Z,25.75
2018-12-01T08:49:23.582Z,32.75
2018-12-01T08:51:53.534Z,27.50
2018-12-01T08:54:23.450Z,23.77
2018-12-01T08:56:53.387Z,28.40
2018-12-01T08:59:23.602Z,19.98
2018-12-01T09:01:53.499Z,30.92
2018-12-01T09:04:43.397Z,27.82
2018-12-01T09:07:32.919Z,22.65
2018-12-01T09:10:02.568Z,24.23
2018-12-01T09:12:52.230Z,24.90
2018-12-01T09:15:21.903Z,20.63
2018-12-01T09:17:52.338Z,19.97
2018-12-01T09:20:22.647Z,25.60
2018-12-01T09:23:12.564Z,30.02
2018-12-01T09:25:43.074Z,29.23
2018-12-01T09:28:12.695Z,16.02
2018-12-01T09:31:01.482Z,15.13
2018-12-01T09:33:32.225Z,26.33
2018-12-01T09:36:21.498Z,22.87
2018-12-01T09:38:51.428Z,14.20
2018-12-01T09:41:40.549Z,14.77
2018-12-01T09:44:10.809Z,13.73
2018-12-01T09:46:40.711Z,14.10
2018-12-01T09:49:10.661Z,16.03
2018-12-01T09:51:40.861Z,12.50
2018-12-01T09:54:10.449Z,13.03
2018-12-01T09:56:59.522Z,17.30
2018-12-01T09:59:29.694Z,18.77
2018-12-01T10:01:59.670Z,15.53
2018-12-01T10:04:29.290Z,13.40
2018-12-01T10:06:59.557Z,25.33
2018-12-01T10:09:29.420Z,16.13
2018-12-01T10:11:59.329Z,16.27
2018-12-01T10:14:29.020Z,12.20
2018-12-01T10:16:59.343Z,20.85
2018-12-01T10:19:29.278Z,19.00
2018-12-01T10:21:59.200Z,18.27
2018-12-01T10:24:28.824Z,15.97
2018-12-01T10:26:58.433Z,14.17
2018-12-01T10:29:28.729Z,14.80
2018-12-01T10:31:58.360Z,14.40
2018-12-01T10:34:47.198Z,23.63
2018-12-01T10:37:16.806Z,8.00
2018-12-01T10:39:59.310Z,19.00
2018-12-01T10:42:18.273Z,11.70
2018-12-01T10:44:48.215Z,16.77
2018-12-01T10:47:18.102Z,9.20
2018-12-01T10:49:47.977Z,17.73
2018-12-01T10:52:17.944Z,12.17
2018-12-01T10:54:47.851Z,9.90
2018-12-01T10:57:17.874Z,16.17
2018-12-01T10:59:48.099Z,13.90
2018-12-01T11:02:56.025Z,8.93
2018-12-01T11:05:25.860Z,8.77
2018-12-01T11:07:55.806Z,6.57
2018-12-01T11:10:25.748Z,14.57
2018-12-01T11:12:56.293Z,10.43
2018-12-01T11:15:26.227Z,10.20
2018-12-01T11:17:56.239Z,16.80
2018-12-01T11:20:25.895Z,15.57
2018-12-01T11:22:58.030Z,10.83
2018-12-01T11:25:26.692Z,13.60
2018-12-01T11:28:16.074Z,8.83
2018-12-01T11:30:46.534Z,18.07
2018-12-01T11:33:16.933Z,12.80
2018-12-01T11:36:06.103Z,13.80
2018-12-01T11:38:36.422Z,12.63
2018-12-01T11:41:06.500Z,11.90
2018-12-01T11:43:36.737Z,16.83
2018-12-01T11:46:06.974Z,11.80
2018-12-01T11:48:37.643Z,12.07
2018-12-01T11:51:08.131Z,7.83
2018-12-01T11:53:38.460Z,12.73
2018-12-01T11:56:08.061Z,17.83
2018-12-01T11:58:38.075Z,6.43
2018-12-01T12:01:08.012Z,15.03
2018-12-01T12:03:38.219Z,8.50
2018-12-01T12:06:08.161Z,10.07
2018-12-01T12:08:57.759Z,10.17
2018-12-01T12:11:27.631Z,9.43
2018-12-01T12:14:16.934Z,23.87
2018-12-01T12:16:46.930Z,14.53
2018-12-01T12:19:35.446Z,12.40
2018-12-01T12:22:05.389Z,13.90
2018-12-01T12:24:35.811Z,9.33
2018-12-01T12:27:05.903Z,8.63
2018-12-01T12:29:36.185Z,11.27
2018-12-01T12:32:06.369Z,14.00
2018-12-01T12:34:56.020Z,18.07
2018-12-01T12:37:26.548Z,7.73
2018-12-01T12:39:56.470Z,17.17
2018-12-01T12:42:26.994Z,13.60
2018-12-01T12:45:16.069Z,13.03
2018-12-01T12:47:45.829Z,23.00
2018-12-01T12:50:24.300Z,18.20
2018-12-01T12:53:13.056Z,7.90
2018-12-01T12:55:44.557Z,17.37
2018-12-01T12:58:33.053Z,18.63
2018-12-01T13:01:02.933Z,12.93
2018-12-01T13:03:32.522Z,7.93
2018-12-01T13:06:21.849Z,12.00
2018-12-01T13:08:51.761Z,15.63
2018-12-01T13:11:41.175Z,31.73
2018-12-01T13:14:11.045Z,15.90
2018-12-01T13:16:40.955Z,15.83
2018-12-01T13:19:10.586Z,18.27
2018-12-01T13:21:40.440Z,18.87
2018-12-01T13:24:10.393Z,9.97
2018-12-01T13:26:59.472Z,21.53
2018-12-01T13:29:48.540Z,23.03
2018-12-01T13:32:18.658Z,21.13
2018-12-01T13:35:07.541Z,14.43
2018-12-01T13:37:37.146Z,19.40
2018-12-01T13:40:26.196Z,12.90
2018-12-01T13:42:56.155Z,25.10
2018-12-01T13:45:27.254Z,10.07
2018-12-01T13:47:57.586Z,8.43
2018-12-01T13:50:27.800Z,22.40
2018-12-01T13:53:01.460Z,33.30
2018-12-01T13:55:31.076Z,23.00
2018-12-01T13:58:00.681Z,34.33
2018-12-01T14:00:30.325Z,27.80
2018-12-01T14:03:01.297Z,17.43
2018-12-01T14:05:31.185Z,20.60
2018-12-01T14:08:01.497Z,30.03
2018-12-01T14:10:51.726Z,14.33
2018-12-01T14:13:21.314Z,17.00
2018-12-01T14:15:51.785Z,13.33
2018-12-01T14:18:21.400Z,20.73
2018-12-01T14:20:50.993Z,9.53
2018-12-01T14:23:21.918Z,18.03
2018-12-01T14:25:52.299Z,25.13
2018-12-01T14:28:21.887Z,12.90
2018-12-01T14:30:53.469Z,14.40
2018-12-01T14:33:23.074Z,18.17
2018-12-01T14:36:12.116Z,7.60
2018-12-01T14:38:41.986Z,41.40
2018-12-01T14:41:11.573Z,18.50
2018-12-01T14:43:41.172Z,15.67
2018-12-01T14:46:30.129Z,18.83
2018-12-01T14:49:00.143Z,16.27
2018-12-01T14:51:29.986Z,18.33
2018-12-01T14:53:59.872Z,12.37
2018-12-01T14:56:29.755Z,20.53
2018-12-01T14:58:59.344Z,7.90
2018-12-01T15:01:29.293Z,11.00
2018-12-01T15:03:59.216Z,11.03
2018-12-01T15:06:48.021Z,16.77
2018-12-01T15:09:17.889Z,19.30
2018-12-01T15:12:02.121Z,13.90
2018-12-01T15:14:37.475Z,14.27
2018-12-01T15:17:07.271Z,17.57
2018-12-01T15:19:56.056Z,16.47
2018-12-01T15:22:26.482Z,20.47
2018-12-01T15:25:15.673Z,34.10
2018-12-01T15:27:45.971Z,26.93
2018-12-01T15:30:34.929Z,17.40
2018-12-01T15:33:23.785Z,28.07
2018-12-01T15:36:13.097Z,22.60
2018-12-01T15:38:43.273Z,16.27
2018-12-01T15:41:32.749Z,23.17
2018-12-01T15:44:21.820Z,28.33
2018-12-01T15:46:52.751Z,11.60
2018-12-01T15:49:41.232Z,17.97
2018-12-01T15:52:11.141Z,14.60
2018-12-01T15:54:41.762Z,11.40
2018-12-01T15:57:11.969Z,26.00
2018-12-01T16:00:01.405Z,28.50
2018-12-01T16:02:49.918Z,25.13
2018-12-01T16:05:40.255Z,25.13
2018-12-01T16:08:11.070Z,22.30
2018-12-01T16:11:00.759Z,27.47
2018-12-01T16:13:31.229Z,23.03
2018-12-01T16:16:21.546Z,15.10
2018-12-01T16:18:52.068Z,19.23
2018-12-01T16:21:22.878Z,29.57
2018-12-01T16:23:52.800Z,20.10
2018-12-01T16:26:22.411Z,20.20
2018-12-01T16:28:52.038Z,24.60
2018-12-01T16:31:22.171Z,19.90
2018-12-01T16:33:52.101Z,22.33
2018-12-01T16:36:41.170Z,14.83
2018-12-01T16:39:11.767Z,18.05
2018-12-01T16:42:01.636Z,24.87
2018-12-01T16:44:31.853Z,17.93
2018-12-01T16:47:01.767Z,15.80
2018-12-01T16:49:32.805Z,8.27
2018-12-01T16:52:02.769Z,17.00
2018-12-01T16:54:52.622Z,15.50
2018-12-01T16:57:22.350Z,13.22
2018-12-01T16:59:52.308Z,9.80
2018-12-01T17:02:22.245Z,10.47
2018-12-01T17:04:52.492Z,8.87
2018-12-01T17:07:22.096Z,17.55
2018-12-01T17:09:51.705Z,15.70
2018-12-01T17:12:41.254Z,9.47
2018-12-01T17:15:30.037Z,15.03
2018-12-01T17:18:19.377Z,17.07
2018-12-01T17:21:09.497Z,18.03
2018-12-01T17:23:39.385Z,20.02
2018-12-01T17:26:09.263Z,17.73
2018-12-01T17:28:39.560Z,11.27
2018-12-01T17:31:09.552Z,14.27
2018-12-01T17:33:40.183Z,12.63
2018-12-01T17:36:09.863Z,17.15
2018-12-01T17:38:39.826Z,16.30
2018-12-01T17:41:29.473Z,16.47
2018-12-01T17:44:17.996Z,28.83
2018-12-01T17:46:47.980Z,13.38
2018-12-01T17:49:17.893Z,32.63
2018-12-01T17:51:47.855Z,12.85
2018-12-01T17:54:18.901Z,15.57
2018-12-01T17:56:48.749Z,8.85
2018-12-01T17:59:19.297Z,11.23
2018-12-01T18:01:49.238Z,16.23
2018-12-01T18:04:19.089Z,18.70
2018-12-01T18:06:49.009Z,9.13
2018-12-01T18:09:19.239Z,16.60
2018-12-01T18:11:48.857Z,20.77
2018-12-01T18:14:19.421Z,17.73
2018-12-01T18:16:49.354Z,18.13
2018-12-01T18:19:19.530Z,19.63
2018-12-01T18:21:49.401Z,18.95
2018-12-01T18:24:19.726Z,16.27
2018-12-01T18:26:50.023Z,20.20
2018-12-01T18:29:20.261Z,23.52
2018-12-01T18:31:50.247Z,18.60
2018-12-01T18:34:20.098Z,24.17
2018-12-01T18:36:50.935Z,20.93
2018-12-01T18:39:21.658Z,26.57
2018-12-01T18:41:51.260Z,19.20
2018-12-01T18:44:22.313Z,22.13
2018-12-01T18:46:52.238Z,18.98
2018-12-01T18:49:22.550Z,27.87
2018-12-01T18:51:52.431Z,20.30
2018-12-01T18:54:22.559Z,18.13
2018-12-01T18:56:52.414Z,26.77
2018-12-01T18:59:22.287Z,22.83
2018-12-01T19:01:53.173Z,26.48
2018-12-01T19:04:22.789Z,23.32
2018-12-01T19:06:53.074Z,18.73
2018-12-01T19:09:23.840Z,17.90
2018-12-01T19:11:53.505Z,23.60
2018-12-01T19:14:23.743Z,17.90
2018-12-01T19:16:53.681Z,22.23
2018-12-01T19:19:24.187Z,19.00
2018-12-01T19:21:54.489Z,19.97
2018-12-01T19:24:24.841Z,14.00
2018-12-01T19:26:54.465Z,24.75
2018-12-01T19:29:24.981Z,21.75
2018-12-01T19:31:55.558Z,22.95
2018-12-01T19:34:25.819Z,20.57
2018-12-01T19:36:55.725Z,22.30
2018-12-01T19:39:26.320Z,17.93
2018-12-01T19:41:56.616Z,20.53
2018-12-01T19:44:26.498Z,18.27
2018-12-01T19:46:56.153Z,24.00
2018-12-01T19:49:26.115Z,17.93
2018-12-01T19:51:56.416Z,26.40
2018-12-01T19:54:26.455Z,19.43
2018-12-01T19:56:56.345Z,37.33
2018-12-01T19:59:26.706Z,19.60
2018-12-01T20:01:57.036Z,24.67
2018-12-01T20:04:27.061Z,22.70
2018-12-01T20:06:56.687Z,23.53
2018-12-01T20:09:26.295Z,22.90
2018-12-01T20:11:56.776Z,24.00
2018-12-01T20:14:26.554Z,25.77
2018-12-01T20:16:58.179Z,26.00
2018-12-01T20:19:28.060Z,21.37
2018-12-01T20:21:57.688Z,26.93
2018-12-01T20:24:27.833Z,25.83
2018-12-01T20:26:57.537Z,26.07
2018-12-01T20:29:27.745Z,25.40
2018-12-01T20:31:57.400Z,25.57
2018-12-01T20:34:27.379Z,24.07
2018-12-01T20:37:00.354Z,23.20
2018-12-01T20:39:35.047Z,23.90
2018-12-01T20:42:04.749Z,25.43
2018-12-01T20:44:35.011Z,22.93
2018-12-01T20:47:04.931Z,32.77
2018-12-01T20:49:36.180Z,28.73
2018-12-01T20:52:06.530Z,26.07
2018-12-01T20:54:47.379Z,32.70
2018-12-01T20:57:33.373Z,28.80
2018-12-01T21:00:03.142Z,36.20
2018-12-01T21:02:33.201Z,25.50
2018-12-01T21:05:03.754Z,28.60
2018-12-01T21:07:35.171Z,23.40
2018-12-01T21:10:05.394Z,28.37
2018-12-01T21:12:35.017Z,28.83
2018-12-01T21:15:06.239Z,37.17
2018-12-01T21:17:35.927Z,31.62
2018-12-01T21:20:08.496Z,34.07
2018-12-01T21:22:38.225Z,31.33
2018-12-01T21:25:16.447Z,35.20
2018-12-01T21:27:46.375Z,27.30
2018-12-01T21:30:20.597Z,26.30
2018-12-01T21:32:52.232Z,33.87
2018-12-01T21:35:22.146Z,33.60
2018-12-01T21:37:52.687Z,21.82
2018-12-01T21:40:22.935Z,21.00
2018-12-01T21:42:53.206Z,20.40
2018-12-01T21:45:22.910Z,23.50
2018-12-01T21:47:53.254Z,21.33
2018-12-01T21:50:23.792Z,23.60
2018-12-01T21:52:54.788Z,21.73
2018-12-01T21:55:25.503Z,16.23
2018-12-01T21:57:56.491Z,22.80
2018-12-01T22:00:30.310Z,18.90
2018-12-01T22:03:09.223Z,17.87
2018-12-01T22:05:59.434Z,18.77
2018-12-01T22:08:29.364Z,14.33
2018-12-01T22:11:00.048Z,16.83
2018-12-01T22:13:29.836Z,16.90
2018-12-01T22:15:59.876Z,23.07
2018-12-01T22:18:30.439Z,15.30
2018-12-01T22:21:00.907Z,14.83
2018-12-01T22:23:30.852Z,19.83
2018-12-01T22:26:00.786Z,20.67
2018-12-01T22:28:35.356Z,18.60
2018-12-01T22:31:01.435Z,15.90
2018-12-01T22:33:31.457Z,20.43
2018-12-01T22:36:01.367Z,17.53
2018-12-01T22:38:32.058Z,15.93
2018-12-01T22:41:01.896Z,20.57
2018-12-01T22:43:31.823Z,21.57
2018-12-01T22:46:02.045Z,16.63
2018-12-01T22:48:31.646Z,19.80
2018-12-01T22:51:01.880Z,14.83
2018-12-01T22:53:31.477Z,18.23
2018-12-01T22:56:01.113Z,20.27
2018-12-01T22:58:30.741Z,20.10
2018-12-01T23:01:00.881Z,27.37
2018-12-01T23:03:32.625Z,15.83
2018-12-01T23:06:02.284Z,21.93
2018-12-01T23:08:32.192Z,20.13
2018-12-01T23:11:01.798Z,18.40
2018-12-01T23:13:31.421Z,19.63
2018-12-01T23:16:01.662Z,22.63
2018-12-01T23:18:31.271Z,20.23
2018-12-01T23:21:01.159Z,25.37
2018-12-01T23:23:30.814Z,22.23
2018-12-01T23:26:00.683Z,22.83
2018-12-01T23:28:30.632Z,24.50
2018-12-01T23:31:00.244Z,22.53
2018-12-01T23:33:30.307Z,24.80
2018-12-01T23:36:00.242Z,26.10
2018-12-01T23:38:29.838Z,30.47
2018-12-01T23:41:00.071Z,26.13
2018-12-01T23:43:29.982Z,29.83
2018-12-01T23:46:00.187Z,23.77
2018-12-01T23:48:30.149Z,25.57
2018-12-01T23:51:00.039Z,25.40
2018-12-01T23:53:29.985Z,23.50
2018-12-01T23:56:19.108Z,27.57
2018-12-01T23:58:48.712Z,23.23
